sensor_id;sensor_type;location;lat;lon;timestamp;pressure;altitude;pressure_sealevel;temperature;humidity
9257;BME280;4665;51.368;6.782;2023-02-04T00:00:46;102840.13;;;7.01;100.00
9257;BME280;4665;51.368;6.782;2023-02-04T00:03:15;102839.03;;;7.05;100.00
9257;BME280;4665;51.368;6.782;2023-02-04T00:05:42;102850.34;;;7.08;100.00
9257;BME280;4665;51.368;6.782;2023-02-04T00:08:07;102857.69;;;7.03;100.00
9257;BME280;4665;51.368;6.782;2023-02-04T00:10:33;102870.44;;;7.12;100.00
9257;BME280;4665;51.368;6.782;2023-02-04T00:12:59;102878.25;;;7.15;100.00
9257;BME280;4665;51.368;6.782;2023-02-04T00:15:24;102880.38;;;7.09;100.00
9257;BME280;4665;51.368;6.782;2023-02-04T00:17:49;102882.47;;;7.02;100.00
9257;BME280;4665;51.368;6.782;2023-02-04T00:20:15;102883.44;;;7.01;100.00
9257;BME280;4665;51.368;6.782;2023-02-04T00:22:41;102876.56;;;6.97;100.00
9257;BME280;4665;51.368;6.782;2023-02-04T00:25:06;102883.09;;;7.07;100.00
9257;BME280;4665;51.368;6.782;2023-02-04T00:27:32;102872.25;;;7.12;100.00
9257;BME280;4665;51.368;6.782;2023-02-04T00:29:57;102881.69;;;7.18;100.00
9257;BME280;4665;51.368;6.782;2023-02-04T00:32:23;102878.00;;;7.20;100.00
9257;BME280;4665;51.368;6.782;2023-02-04T00:34:49;102882.47;;;7.20;100.00
9257;BME280;4665;51.368;6.782;2023-02-04T00:37:14;102878.25;;;7.15;100.00
9257;BME280;4665;51.368;6.782;2023-02-04T00:39:40;102881.38;;;7.06;100.00
9257;BME280;4665;51.368;6.782;2023-02-04T00:42:05;102884.97;;;7.05;100.00
9257;BME280;4665;51.368;6.782;2023-02-04T00:44:31;102881.56;;;7.03;100.00
9257;BME280;4665;51.368;6.782;2023-02-04T00:46:56;102874.75;;;6.98;100.00
9257;BME280;4665;51.368;6.782;2023-02-04T00:49:22;102881.00;;;6.97;100.00
9257;BME280;4665;51.368;6.782;2023-02-04T00:51:47;102875.31;;;7.04;100.00
9257;BME280;4665;51.368;6.782;2023-02-04T00:54:13;102876.41;;;7.00;100.00
9257;BME280;4665;51.368;6.782;2023-02-04T00:56:40;102872.81;;;7.01;100.00
9257;BME280;4665;51.368;6.782;2023-02-04T00:59:05;102879.41;;;7.10;100.00
9257;BME280;4665;51.368;6.782;2023-02-04T01:01:31;102877.41;;;6.98;100.00
9257;BME280;4665;51.368;6.782;2023-02-04T01:03:56;102882.78;;;6.96;100.00
9257;BME280;4665;51.368;6.782;2023-02-04T01:06:22;102897.47;;;7.03;100.00
9257;BME280;4665;51.368;6.782;2023-02-04T01:08:47;102901.09;;;7.01;100.00
9257;BME280;4665;51.368;6.782;2023-02-04T01:11:12;102905.16;;;7.08;100.00
9257;BME280;4665;51.368;6.782;2023-02-04T01:13:38;102904.16;;;7.10;100.00
9257;BME280;4665;51.368;6.782;2023-02-04T01:16:03;102905.78;;;7.13;100.00
9257;BME280;4665;51.368;6.782;2023-02-04T01:18:29;102897.81;;;7.13;100.00
9257;BME280;4665;51.368;6.782;2023-02-04T01:20:54;102893.69;;;7.07;100.00
9257;BME280;4665;51.368;6.782;2023-02-04T01:23:19;102904.47;;;7.04;100.00
9257;BME280;4665;51.368;6.782;2023-02-04T01:25:45;102908.19;;;7.00;100.00
9257;BME280;4665;51.368;6.782;2023-02-04T01:28:10;102915.53;;;6.95;100.00
9257;BME280;4665;51.368;6.782;2023-02-04T01:30:36;102920.06;;;6.93;100.00
9257;BME280;4665;51.368;6.782;2023-02-04T01:33:01;102906.50;;;6.82;100.00
9257;BME280;4665;51.368;6.782;2023-02-04T01:35:26;102917.81;;;6.85;100.00
9257;BME280;4665;51.368;6.782;2023-02-04T01:37:52;102925.88;;;6.82;100.00
9257;BME280;4665;51.368;6.782;2023-02-04T01:40:18;102938.59;;;6.93;100.00
9257;BME280;4665;51.368;6.782;2023-02-04T01:42:43;102941.56;;;6.87;100.00
9257;BME280;4665;51.368;6.782;2023-02-04T01:45:09;102949.38;;;6.90;100.00
9257;BME280;4665;51.368;6.782;2023-02-04T01:47:35;102947.56;;;6.90;100.00
9257;BME280;4665;51.368;6.782;2023-02-04T01:50:01;102954.34;;;6.96;100.00
9257;BME280;4665;51.368;6.782;2023-02-04T01:52:31;102957.16;;;6.93;100.00
9257;BME280;4665;51.368;6.782;2023-02-04T01:54:59;102946.47;;;6.77;100.00
9257;BME280;4665;51.368;6.782;2023-02-04T01:57:24;102948.09;;;6.80;100.00
9257;BME280;4665;51.368;6.782;2023-02-04T01:59:51;102947.66;;;6.71;100.00
9257;BME280;4665;51.368;6.782;2023-02-04T02:05:03;102954.97;;;6.84;100.00
9257;BME280;4665;51.368;6.782;2023-02-04T02:07:29;102954.28;;;6.80;100.00
9257;BME280;4665;51.368;6.782;2023-02-04T02:09:54;102960.34;;;6.82;100.00
9257;BME280;4665;51.368;6.782;2023-02-04T02:12:20;102963.16;;;6.79;100.00
9257;BME280;4665;51.368;6.782;2023-02-04T02:14:45;102962.13;;;6.82;100.00
9257;BME280;4665;51.368;6.782;2023-02-04T02:17:10;102956.84;;;6.82;100.00
9257;BME280;4665;51.368;6.782;2023-02-04T02:19:37;102961.50;;;6.77;100.00
9257;BME280;4665;51.368;6.782;2023-02-04T02:22:17;102960.50;;;6.79;100.00
9257;BME280;4665;51.368;6.782;2023-02-04T02:24:45;102961.50;;;6.77;100.00
9257;BME280;4665;51.368;6.782;2023-02-04T02:27:11;102967.75;;;6.76;100.00
9257;BME280;4665;51.368;6.782;2023-02-04T02:29:38;102977.47;;;6.75;100.00
9257;BME280;4665;51.368;6.782;2023-02-04T02:32:05;102972.97;;;6.77;100.00
9257;BME280;4665;51.368;6.782;2023-02-04T02:34:32;102976.78;;;6.89;100.00
9257;BME280;4665;51.368;6.782;2023-02-04T02:36:58;102977.25;;;6.80;100.00
9257;BME280;4665;51.368;6.782;2023-02-04T02:39:25;102981.69;;;6.79;100.00
9257;BME280;4665;51.368;6.782;2023-02-04T02:41:50;102978.38;;;6.76;100.00
9257;BME280;4665;51.368;6.782;2023-02-04T02:44:16;102994.25;;;6.76;100.00
9257;BME280;4665;51.368;6.782;2023-02-04T02:46:42;102990.44;;;6.81;100.00
9257;BME280;4665;51.368;6.782;2023-02-04T02:49:13;102988.06;;;6.75;100.00
9257;BME280;4665;51.368;6.782;2023-02-04T02:51:40;102984.97;;;6.67;100.00
9257;BME280;4665;51.368;6.782;2023-02-04T02:54:21;102991.59;;;6.76;100.00
9257;BME280;4665;51.368;6.782;2023-02-04T02:56:47;102989.09;;;6.72;100.00
9257;BME280;4665;51.368;6.782;2023-02-04T02:59:14;102990.03;;;6.71;100.00
9257;BME280;4665;51.368;6.782;2023-02-04T03:01:40;102992.75;;;6.70;100.00
9257;BME280;4665;51.368;6.782;2023-02-04T03:04:06;102994.63;;;6.68;100.00
9257;BME280;4665;51.368;6.782;2023-02-04T03:06:32;102983.22;;;6.66;100.00
9257;BME280;4665;51.368;6.782;2023-02-04T03:08:58;102999.84;;;6.69;100.00
9257;BME280;4665;51.368;6.782;2023-02-04T03:11:23;102997.47;;;6.63;100.00
9257;BME280;4665;51.368;6.782;2023-02-04T03:13:51;102989.97;;;6.54;100.00
9257;BME280;4665;51.368;6.782;2023-02-04T03:16:17;103007.28;;;6.61;100.00
9257;BME280;4665;51.368;6.782;2023-02-04T03:18:43;103011.44;;;6.67;100.00
9257;BME280;4665;51.368;6.782;2023-02-04T03:21:08;103005.44;;;6.63;100.00
9257;BME280;4665;51.368;6.782;2023-02-04T03:23:34;103010.72;;;6.63;100.00
9257;BME280;4665;51.368;6.782;2023-02-04T03:26:01;102993.75;;;6.50;100.00
9257;BME280;4665;51.368;6.782;2023-02-04T03:28:26;103012.47;;;6.64;100.00
9257;BME280;4665;51.368;6.782;2023-02-04T03:30:52;103002.16;;;6.58;100.00
9257;BME280;4665;51.368;6.782;2023-02-04T03:33:25;103015.75;;;6.69;100.00
9257;BME280;4665;51.368;6.782;2023-02-04T03:35:53;103013.59;;;6.59;100.00
9257;BME280;4665;51.368;6.782;2023-02-04T03:38:18;103022.66;;;6.55;100.00
9257;BME280;4665;51.368;6.782;2023-02-04T03:40:44;103024.34;;;6.56;100.00
9257;BME280;4665;51.368;6.782;2023-02-04T03:43:10;103014.19;;;6.46;100.00
9257;BME280;4665;51.368;6.782;2023-02-04T03:45:35;103010.97;;;6.40;100.00
9257;BME280;4665;51.368;6.782;2023-02-04T03:48:00;103027.38;;;6.48;100.00
9257;BME280;4665;51.368;6.782;2023-02-04T03:50:26;103029.94;;;6.49;100.00
9257;BME280;4665;51.368;6.782;2023-02-04T03:52:51;103017.28;;;6.37;100.00
9257;BME280;4665;51.368;6.782;2023-02-04T03:55:18;103019.94;;;6.37;100.00
9257;BME280;4665;51.368;6.782;2023-02-04T03:57:44;103027.50;;;6.45;100.00
9257;BME280;4665;51.368;6.782;2023-02-04T04:00:10;103031.16;;;6.42;100.00
9257;BME280;4665;51.368;6.782;2023-02-04T04:02:36;103034.81;;;6.40;100.00
9257;BME280;4665;51.368;6.782;2023-02-04T04:05:01;103030.31;;;6.42;100.00
9257;BME280;4665;51.368;6.782;2023-02-04T04:07:26;103018.13;;;6.38;100.00
9257;BME280;4665;51.368;6.782;2023-02-04T04:09:52;103020.16;;;6.32;100.00
9257;BME280;4665;51.368;6.782;2023-02-04T04:12:17;103026.09;;;6.38;100.00
9257;BME280;4665;51.368;6.782;2023-02-04T04:14:43;103033.91;;;6.41;100.00
9257;BME280;4665;51.368;6.782;2023-02-04T04:17:08;103033.38;;;6.32;100.00
9257;BME280;4665;51.368;6.782;2023-02-04T04:19:33;103037.78;;;6.34;100.00
9257;BME280;4665;51.368;6.782;2023-02-04T04:21:59;103046.63;;;6.32;100.00
9257;BME280;4665;51.368;6.782;2023-02-04T04:24:25;103052.06;;;6.29;100.00
9257;BME280;4665;51.368;6.782;2023-02-04T04:26:50;103057.50;;;6.26;100.00
9257;BME280;4665;51.368;6.782;2023-02-04T04:29:15;103061.09;;;6.25;100.00
9257;BME280;4665;51.368;6.782;2023-02-04T04:31:41;103050.56;;;6.24;100.00
9257;BME280;4665;51.368;6.782;2023-02-04T04:34:06;103053.19;;;6.24;100.00
9257;BME280;4665;51.368;6.782;2023-02-04T04:36:31;103058.81;;;6.18;100.00
9257;BME280;4665;51.368;6.782;2023-02-04T04:38:57;103059.72;;;6.17;100.00
9257;BME280;4665;51.368;6.782;2023-02-04T04:41:23;103047.63;;;6.11;100.00
9257;BME280;4665;51.368;6.782;2023-02-04T04:43:48;103072.72;;;6.21;100.00
9257;BME280;4665;51.368;6.782;2023-02-04T04:46:14;103069.72;;;6.10;100.00
9257;BME280;4665;51.368;6.782;2023-02-04T04:48:39;103079.03;;;6.19;100.00
9257;BME280;4665;51.368;6.782;2023-02-04T04:51:05;103085.13;;;6.21;100.00
9257;BME280;4665;51.368;6.782;2023-02-04T04:53:30;103076.59;;;6.14;100.00
9257;BME280;4665;51.368;6.782;2023-02-04T04:55:55;103080.44;;;6.07;100.00
9257;BME280;4665;51.368;6.782;2023-02-04T04:58:21;103077.16;;;6.02;100.00
9257;BME280;4665;51.368;6.782;2023-02-04T05:00:46;103083.84;;;6.10;100.00
9257;BME280;4665;51.368;6.782;2023-02-04T05:03:12;103085.75;;;6.07;100.00
9257;BME280;4665;51.368;6.782;2023-02-04T05:05:37;103091.25;;;6.02;100.00
9257;BME280;4665;51.368;6.782;2023-02-04T05:08:06;103084.31;;;6.00;100.00
9257;BME280;4665;51.368;6.782;2023-02-04T05:10:37;103088.75;;;5.99;100.00
9257;BME280;4665;51.368;6.782;2023-02-04T05:13:03;103099.44;;;5.96;100.00
9257;BME280;4665;51.368;6.782;2023-02-04T05:15:28;103101.03;;;6.00;100.00
9257;BME280;4665;51.368;6.782;2023-02-04T05:17:53;103098.47;;;5.99;100.00
9257;BME280;4665;51.368;6.782;2023-02-04T05:20:19;103105.31;;;6.03;100.00
9257;BME280;4665;51.368;6.782;2023-02-04T05:22:44;103110.75;;;6.00;100.00
9257;BME280;4665;51.368;6.782;2023-02-04T05:25:09;103102.97;;;5.97;100.00
9257;BME280;4665;51.368;6.782;2023-02-04T05:27:35;103112.63;;;5.98;100.00
9257;BME280;4665;51.368;6.782;2023-02-04T05:30:00;103108.75;;;6.05;100.00
9257;BME280;4665;51.368;6.782;2023-02-04T05:32:26;103115.13;;;6.01;100.00
9257;BME280;4665;51.368;6.782;2023-02-04T05:34:51;103125.06;;;5.96;100.00
9257;BME280;4665;51.368;6.782;2023-02-04T05:37:17;103117.00;;;5.99;100.00
9257;BME280;4665;51.368;6.782;2023-02-04T05:39:45;103126.00;;;5.95;100.00
9257;BME280;4665;51.368;6.782;2023-02-04T05:42:11;103131.28;;;5.95;100.00
9257;BME280;4665;51.368;6.782;2023-02-04T05:44:36;103131.44;;;5.90;100.00
9257;BME280;4665;51.368;6.782;2023-02-04T05:47:02;103139.59;;;5.85;100.00
9257;BME280;4665;51.368;6.782;2023-02-04T05:49:27;103137.75;;;5.87;100.00
9257;BME280;4665;51.368;6.782;2023-02-04T05:51:53;103128.91;;;5.87;100.00
9257;BME280;4665;51.368;6.782;2023-02-04T05:54:18;103132.38;;;5.89;100.00
9257;BME280;4665;51.368;6.782;2023-02-04T05:56:45;103118.75;;;5.78;100.00
9257;BME280;4665;51.368;6.782;2023-02-04T05:59:11;103132.72;;;5.81;100.00
9257;BME280;4665;51.368;6.782;2023-02-04T06:01:36;103123.97;;;5.79;100.00
9257;BME280;4665;51.368;6.782;2023-02-04T06:04:02;103148.75;;;5.99;100.00
9257;BME280;4665;51.368;6.782;2023-02-04T06:06:27;103154.28;;;5.93;100.00
9257;BME280;4665;51.368;6.782;2023-02-04T06:08:52;103145.47;;;5.92;100.00
9257;BME280;4665;51.368;6.782;2023-02-04T06:11:18;103147.38;;;5.88;100.00
9257;BME280;4665;51.368;6.782;2023-02-04T06:13:43;103155.47;;;5.85;100.00
9257;BME280;4665;51.368;6.782;2023-02-04T06:16:09;103156.13;;;5.90;100.00
9257;BME280;4665;51.368;6.782;2023-02-04T06:18:34;103150.78;;;5.92;100.00
9257;BME280;4665;51.368;6.782;2023-02-04T06:20:59;103147.19;;;5.93;100.00
9257;BME280;4665;51.368;6.782;2023-02-04T06:23:29;103151.78;;;5.89;100.00
9257;BME280;4665;51.368;6.782;2023-02-04T06:25:54;103153.31;;;5.95;100.00
9257;BME280;4665;51.368;6.782;2023-02-04T06:28:20;103161.25;;;5.94;100.00
9257;BME280;4665;51.368;6.782;2023-02-04T06:30:45;103164.84;;;5.94;100.00
9257;BME280;4665;51.368;6.782;2023-02-04T06:33:10;103164.84;;;5.94;100.00
9257;BME280;4665;51.368;6.782;2023-02-04T06:35:36;103165.69;;;5.95;100.00
9257;BME280;4665;51.368;6.782;2023-02-04T06:38:01;103170.03;;;5.96;100.00
9257;BME280;4665;51.368;6.782;2023-02-04T06:40:27;103168.34;;;5.93;100.00
9257;BME280;4665;51.368;6.782;2023-02-04T06:42:52;103168.41;;;5.91;100.00
9257;BME280;4665;51.368;6.782;2023-02-04T06:45:17;103174.28;;;6.00;100.00
9257;BME280;4665;51.368;6.782;2023-02-04T06:47:43;103160.63;;;5.88;100.00
9257;BME280;4665;51.368;6.782;2023-02-04T06:50:08;103171.00;;;5.93;100.00
9257;BME280;4665;51.368;6.782;2023-02-04T06:52:34;103177.06;;;5.97;100.00
9257;BME280;4665;51.368;6.782;2023-02-04T06:55:00;103170.97;;;5.95;100.00
9257;BME280;4665;51.368;6.782;2023-02-04T06:57:25;103151.88;;;5.86;100.00
9257;BME280;4665;51.368;6.782;2023-02-04T06:59:50;103165.91;;;5.88;100.00
9257;BME280;4665;51.368;6.782;2023-02-04T07:02:16;103160.75;;;5.85;100.00
9257;BME280;4665;51.368;6.782;2023-02-04T07:04:41;103187.44;;;6.01;100.00
9257;BME280;4665;51.368;6.782;2023-02-04T07:07:09;103184.88;;;6.00;100.00
9257;BME280;4665;51.368;6.782;2023-02-04T07:09:34;103185.84;;;5.97;100.00
9257;BME280;4665;51.368;6.782;2023-02-04T07:12:00;103190.47;;;5.92;100.00
9257;BME280;4665;51.368;6.782;2023-02-04T07:14:25;103190.34;;;5.95;100.00
9257;BME280;4665;51.368;6.782;2023-02-04T07:16:50;103195.59;;;5.97;100.00
9257;BME280;4665;51.368;6.782;2023-02-04T07:19:16;103193.03;;;5.94;100.00
9257;BME280;4665;51.368;6.782;2023-02-04T07:21:41;103190.56;;;5.89;100.00
9257;BME280;4665;51.368;6.782;2023-02-04T07:24:06;103197.44;;;5.95;100.00
9257;BME280;4665;51.368;6.782;2023-02-04T07:26:32;103197.28;;;5.98;100.00
9257;BME280;4665;51.368;6.782;2023-02-04T07:28:58;103193.22;;;5.89;100.00
9257;BME280;4665;51.368;6.782;2023-02-04T07:31:23;103207.16;;;5.94;100.00
9257;BME280;4665;51.368;6.782;2023-02-04T07:33:49;103201.78;;;5.96;100.00
9257;BME280;4665;51.368;6.782;2023-02-04T07:36:14;103203.69;;;5.92;100.00
9257;BME280;4665;51.368;6.782;2023-02-04T07:38:39;103209.81;;;5.94;100.00
9257;BME280;4665;51.368;6.782;2023-02-04T07:41:05;103215.88;;;5.96;100.00
9257;BME280;4665;51.368;6.782;2023-02-04T07:43:30;103216.84;;;5.94;100.00
9257;BME280;4665;51.368;6.782;2023-02-04T07:45:55;103216.84;;;5.94;100.00
9257;BME280;4665;51.368;6.782;2023-02-04T07:48:21;103214.91;;;5.99;100.00
9257;BME280;4665;51.368;6.782;2023-02-04T07:50:46;103225.50;;;5.99;100.00
9257;BME280;4665;51.368;6.782;2023-02-04T07:53:12;103219.56;;;5.92;100.00
9257;BME280;4665;51.368;6.782;2023-02-04T07:55:37;103222.13;;;5.94;100.00
9257;BME280;4665;51.368;6.782;2023-02-04T07:58:03;103228.25;;;5.96;100.00
9257;BME280;4665;51.368;6.782;2023-02-04T08:00:28;103236.28;;;5.94;100.00
9257;BME280;4665;51.368;6.782;2023-02-04T08:02:54;103243.28;;;5.94;100.00
9257;BME280;4665;51.368;6.782;2023-02-04T08:05:19;103236.44;;;5.89;100.00
9257;BME280;4665;51.368;6.782;2023-02-04T08:07:45;103245.16;;;5.91;100.00
9257;BME280;4665;51.368;6.782;2023-02-04T08:10:10;103224.25;;;5.85;100.00
9257;BME280;4665;51.368;6.782;2023-02-04T08:12:36;103247.44;;;6.01;100.00
9257;BME280;4665;51.368;6.782;2023-02-04T08:15:02;103254.66;;;5.97;100.00
9257;BME280;4665;51.368;6.782;2023-02-04T08:17:28;103273.41;;;6.13;100.00
9257;BME280;4665;51.368;6.782;2023-02-04T08:19:53;103265.72;;;6.07;100.00
9257;BME280;4665;51.368;6.782;2023-02-04T08:22:19;103271.00;;;6.07;100.00
9257;BME280;4665;51.368;6.782;2023-02-04T08:24:44;103251.22;;;5.95;100.00
9257;BME280;4665;51.368;6.782;2023-02-04T08:27:10;103252.19;;;5.93;100.00
9257;BME280;4665;51.368;6.782;2023-02-04T08:29:35;103276.06;;;6.13;100.00
9257;BME280;4665;51.368;6.782;2023-02-04T08:32:01;103262.41;;;6.02;100.00
9257;BME280;4665;51.368;6.782;2023-02-04T08:34:26;103266.31;;;5.91;100.00
9257;BME280;4665;51.368;6.782;2023-02-04T08:36:51;103263.81;;;5.88;100.00
9257;BME280;4665;51.368;6.782;2023-02-04T08:39:17;103275.25;;;5.89;100.00
9257;BME280;4665;51.368;6.782;2023-02-04T08:41:42;103274.19;;;5.95;100.00
9257;BME280;4665;51.368;6.782;2023-02-04T08:44:08;103294.88;;;6.05;100.00
9257;BME280;4665;51.368;6.782;2023-02-04T08:46:33;103277.69;;;5.94;100.00
9257;BME280;4665;51.368;6.782;2023-02-04T08:48:59;103295.06;;;6.01;100.00
9257;BME280;4665;51.368;6.782;2023-02-04T08:51:24;103281.34;;;5.91;100.00
9257;BME280;4665;51.368;6.782;2023-02-04T08:53:49;103287.28;;;5.98;100.00
9257;BME280;4665;51.368;6.782;2023-02-04T08:56:15;103313.22;;;6.10;100.00
9257;BME280;4665;51.368;6.782;2023-02-04T08:58:42;103288.06;;;6.00;100.00
9257;BME280;4665;51.368;6.782;2023-02-04T09:01:08;103294.16;;;6.02;100.00
9257;BME280;4665;51.368;6.782;2023-02-04T09:03:36;103304.38;;;6.11;100.00
9257;BME280;4665;51.368;6.782;2023-02-04T09:06:01;103296.53;;;6.08;100.00
9257;BME280;4665;51.368;6.782;2023-02-04T09:08:27;103296.63;;;6.06;100.00
9257;BME280;4665;51.368;6.782;2023-02-04T09:10:52;103306.94;;;6.13;100.00
9257;BME280;4665;51.368;6.782;2023-02-04T09:13:17;103306.69;;;6.19;100.00
9257;BME280;4665;51.368;6.782;2023-02-04T09:15:43;103302.38;;;6.16;100.00
9257;BME280;4665;51.368;6.782;2023-02-04T09:18:08;103317.13;;;6.22;100.00
9257;BME280;4665;51.368;6.782;2023-02-04T09:20:45;103322.00;;;6.32;100.00
9257;BME280;4665;51.368;6.782;2023-02-04T09:23:11;103309.75;;;6.30;100.00
9257;BME280;4665;51.368;6.782;2023-02-04T09:25:37;103311.41;;;6.32;100.00
9257;BME280;4665;51.368;6.782;2023-02-04T09:28:04;103319.56;;;6.48;100.00
9257;BME280;4665;51.368;6.782;2023-02-04T09:30:29;103318.63;;;6.49;100.00
9257;BME280;4665;51.368;6.782;2023-02-04T09:32:55;103324.84;;;6.48;100.00
9257;BME280;4665;51.368;6.782;2023-02-04T09:35:20;103314.59;;;6.41;100.00
9257;BME280;4665;51.368;6.782;2023-02-04T09:37:45;103304.91;;;6.40;100.00
9257;BME280;4665;51.368;6.782;2023-02-04T09:40:15;103304.78;;;6.43;100.00
9257;BME280;4665;51.368;6.782;2023-02-04T09:42:46;103331.56;;;6.57;100.00
9257;BME280;4665;51.368;6.782;2023-02-04T09:45:17;103319.34;;;6.53;100.00
9257;BME280;4665;51.368;6.782;2023-02-04T09:47:43;103318.63;;;6.49;100.00
9257;BME280;4665;51.368;6.782;2023-02-04T09:50:13;103327.16;;;6.56;100.00
9257;BME280;4665;51.368;6.782;2023-02-04T09:52:39;103320.25;;;6.52;100.00
9257;BME280;4665;51.368;6.782;2023-02-04T09:55:12;103332.34;;;6.59;100.00
9257;BME280;4665;51.368;6.782;2023-02-04T09:57:37;103322.50;;;6.61;100.00
9257;BME280;4665;51.368;6.782;2023-02-04T10:00:10;103339.91;;;6.68;100.00
9257;BME280;4665;51.368;6.782;2023-02-04T10:02:38;103340.56;;;6.73;100.00
9257;BME280;4665;51.368;6.782;2023-02-04T10:05:05;103346.34;;;6.82;100.00
9257;BME280;4665;51.368;6.782;2023-02-04T10:07:33;103361.00;;;6.90;100.00
9257;BME280;4665;51.368;6.782;2023-02-04T10:09:59;103340.00;;;6.86;100.00
9257;BME280;4665;51.368;6.782;2023-02-04T10:12:25;103338.69;;;6.76;100.00
9257;BME280;4665;51.368;6.782;2023-02-04T10:14:51;103335.06;;;6.78;100.00
9257;BME280;4665;51.368;6.782;2023-02-04T10:17:20;103329.75;;;6.78;100.00
9257;BME280;4665;51.368;6.782;2023-02-04T10:19:46;103339.75;;;6.92;100.00
9257;BME280;4665;51.368;6.782;2023-02-04T10:22:17;103349.03;;;7.01;100.00
9257;BME280;4665;51.368;6.782;2023-02-04T10:24:43;103355.94;;;7.05;100.00
9257;BME280;4665;51.368;6.782;2023-02-04T10:27:10;103354.94;;;7.07;100.00
9257;BME280;4665;51.368;6.782;2023-02-04T10:29:36;103342.78;;;7.03;100.00
9257;BME280;4665;51.368;6.782;2023-02-04T10:32:02;103346.91;;;7.09;100.00
9257;BME280;4665;51.368;6.782;2023-02-04T10:34:33;103357.53;;;7.09;100.00
9257;BME280;4665;51.368;6.782;2023-02-04T10:37:11;103352.38;;;7.06;100.00
9257;BME280;4665;51.368;6.782;2023-02-04T10:39:42;103355.59;;;7.12;100.00
9257;BME280;4665;51.368;6.782;2023-02-04T10:42:22;103362.69;;;7.12;100.00
9257;BME280;4665;51.368;6.782;2023-02-04T10:44:48;103363.31;;;7.17;100.00
9257;BME280;4665;51.368;6.782;2023-02-04T10:47:21;103350.88;;;7.19;100.00
9257;BME280;4665;51.368;6.782;2023-02-04T10:50:14;103358.91;;;7.18;100.00
9257;BME280;4665;51.368;6.782;2023-02-04T10:52:43;103355.38;;;7.17;100.00
9257;BME280;4665;51.368;6.782;2023-02-04T10:55:14;103348.88;;;7.24;100.00
9257;BME280;4665;51.368;6.782;2023-02-04T10:57:42;103349.00;;;7.21;100.00
9257;BME280;4665;51.368;6.782;2023-02-04T11:03:03;103358.50;;;7.27;100.00
9257;BME280;4665;51.368;6.782;2023-02-04T11:05:31;103352.88;;;7.33;100.00
9257;BME280;4665;51.368;6.782;2023-02-04T11:07:57;103359.41;;;7.26;100.00
9257;BME280;4665;51.368;6.782;2023-02-04T11:10:27;103356.63;;;7.29;100.00
9257;BME280;4665;51.368;6.782;2023-02-04T11:18:10;103351.66;;;7.21;100.00
9257;BME280;4665;51.368;6.782;2023-02-04T11:20:36;103354.09;;;7.26;100.00
9257;BME280;4665;51.368;6.782;2023-02-04T11:26:11;103352.09;;;7.31;100.00
9257;BME280;4665;51.368;6.782;2023-02-04T11:28:44;103351.97;;;7.34;100.00
9257;BME280;4665;51.368;6.782;2023-02-04T11:33:45;103353.56;;;7.38;100.00
9257;BME280;4665;51.368;6.782;2023-02-04T11:36:12;103358.88;;;7.38;100.00
9257;BME280;4665;51.368;6.782;2023-02-04T11:38:42;103362.94;;;7.45;100.00
9257;BME280;4665;51.368;6.782;2023-02-04T11:41:14;103364.38;;;7.52;100.00
9257;BME280;4665;51.368;6.782;2023-02-04T11:43:40;103354.41;;;7.57;100.00
9257;BME280;4665;51.368;6.782;2023-02-04T11:46:12;103358.28;;;7.69;100.00
9257;BME280;4665;51.368;6.782;2023-02-04T11:48:39;103358.13;;;7.72;100.00
9257;BME280;4665;51.368;6.782;2023-02-04T11:51:13;103353.75;;;7.71;100.00
9257;BME280;4665;51.368;6.782;2023-02-04T11:53:39;103360.88;;;7.71;100.00
9257;BME280;4665;51.368;6.782;2023-02-04T11:56:05;103358.78;;;7.77;100.00
9257;BME280;4665;51.368;6.782;2023-02-04T11:58:31;103348.16;;;7.77;100.00
9257;BME280;4665;51.368;6.782;2023-02-04T12:00:57;103351.34;;;7.84;100.00
9257;BME280;4665;51.368;6.782;2023-02-04T12:03:31;103351.22;;;7.87;100.00
9257;BME280;4665;51.368;6.782;2023-02-04T12:05:58;103358.19;;;7.90;100.00
9257;BME280;4665;51.368;6.782;2023-02-04T12:08:31;103353.25;;;7.82;100.00
9257;BME280;4665;51.368;6.782;2023-02-04T12:11:04;103360.84;;;7.90;100.00
9257;BME280;4665;51.368;6.782;2023-02-04T12:13:31;103349.66;;;7.83;100.00
9257;BME280;4665;51.368;6.782;2023-02-04T12:16:05;103361.69;;;7.90;100.00
9257;BME280;4665;51.368;6.782;2023-02-04T12:18:32;103352.78;;;7.91;100.00
9257;BME280;4665;51.368;6.782;2023-02-04T12:20:59;103356.09;;;7.96;100.00
9257;BME280;4665;51.368;6.782;2023-02-04T12:23:26;103356.78;;;8.00;100.00
9257;BME280;4665;51.368;6.782;2023-02-04T12:25:53;103363.66;;;8.04;100.00
9257;BME280;4665;51.368;6.782;2023-02-04T12:28:18;103354.69;;;8.07;100.00
9257;BME280;4665;51.368;6.782;2023-02-04T12:30:44;103353.78;;;8.08;100.00
9257;BME280;4665;51.368;6.782;2023-02-04T12:33:10;103360.63;;;8.12;100.00
9257;BME280;4665;51.368;6.782;2023-02-04T12:35:36;103363.06;;;8.16;100.00
9257;BME280;4665;51.368;6.782;2023-02-04T12:38:01;103353.31;;;8.17;100.00
9257;BME280;4665;51.368;6.782;2023-02-04T12:40:27;103344.69;;;8.12;100.00
9257;BME280;4665;51.368;6.782;2023-02-04T12:42:52;103349.09;;;8.13;100.00
9257;BME280;4665;51.368;6.782;2023-02-04T12:45:18;103352.75;;;8.10;100.00
9257;BME280;4665;51.368;6.782;2023-02-04T12:47:44;103356.19;;;8.12;100.00
9257;BME280;4665;51.368;6.782;2023-02-04T12:50:11;103362.19;;;8.16;100.00
9257;BME280;4665;51.368;6.782;2023-02-04T12:52:38;103362.19;;;8.16;100.00
9257;BME280;4665;51.368;6.782;2023-02-04T12:55:04;103345.47;;;8.14;100.00
9257;BME280;4665;51.368;6.782;2023-02-04T12:57:31;103337.84;;;8.08;100.00
9257;BME280;4665;51.368;6.782;2023-02-04T12:59:57;103364.56;;;8.22;100.00
9257;BME280;4665;51.368;6.782;2023-02-04T13:02:25;103350.72;;;8.15;100.00
9257;BME280;4665;51.368;6.782;2023-02-04T13:04:51;103330.78;;;8.07;100.00
9257;BME280;4665;51.368;6.782;2023-02-04T13:07:16;103346.66;;;8.26;100.00
9257;BME280;4665;51.368;6.782;2023-02-04T13:09:42;103345.19;;;8.20;100.00
9257;BME280;4665;51.368;6.782;2023-02-04T13:12:09;103347.50;;;8.26;100.00
9257;BME280;4665;51.368;6.782;2023-02-04T13:14:35;103340.19;;;8.31;100.00
9257;BME280;4665;51.368;6.782;2023-02-04T13:17:00;103340.97;;;8.33;100.00
9257;BME280;4665;51.368;6.782;2023-02-04T13:19:26;103350.06;;;8.47;100.00
9257;BME280;4665;51.368;6.782;2023-02-04T13:21:51;103346.84;;;8.40;100.00